createdAt,value
2018-02-06T00:00:46.054Z,1006.7
2018-02-06T00:01:47.435Z,1006.7
2018-02-06T00:02:48.825Z,1006.7
2018-02-06T00:03:50.208Z,1006.6
2018-02-06T00:04:51.592Z,1006.6
2018-02-06T00:05:52.983Z,1006.6
2018-02-06T00:06:54.364Z,1006.7
2018-02-06T00:07:55.749Z,1006.6
2018-02-06T00:08:57.130Z,1006.7
2018-02-06T00:09:58.518Z,1006.6
2018-02-06T00:10:59.903Z,1006.5
2018-02-06T00:12:01.293Z,1006.5
2018-02-06T00:13:02.675Z,1006.5
2018-02-06T00:14:04.062Z,1006.5
2018-02-06T00:15:05.446Z,1006.5
2018-02-06T00:16:06.949Z,1006.5
2018-02-06T00:17:08.341Z,1006.4
2018-02-06T00:18:09.772Z,1006.4
2018-02-06T00:19:11.113Z,1006.3
2018-02-06T00:20:12.497Z,1006.4
2018-02-06T00:21:13.881Z,1006.3
2018-02-06T00:22:15.264Z,1006.3
2018-02-06T00:23:16.652Z,1006.3
2018-02-06T00:24:18.035Z,1006.2
2018-02-06T00:25:19.422Z,1006.2
2018-02-06T00:26:20.808Z,1006.2
2018-02-06T00:27:22.194Z,1006.1
2018-02-06T00:28:23.581Z,1006.1
2018-02-06T00:29:24.968Z,1006.1
2018-02-06T00:30:26.352Z,1006.0
2018-02-06T00:31:27.739Z,1006.0
2018-02-06T00:32:29.146Z,1006.1
2018-02-06T00:33:30.535Z,1006.1
2018-02-06T00:34:31.919Z,1006.0
2018-02-06T00:35:33.305Z,1006.1
2018-02-06T00:36:34.688Z,1006.1
2018-02-06T00:37:36.073Z,1006.1
2018-02-06T00:38:37.461Z,1006.1
2018-02-06T00:39:38.851Z,1006.1
2018-02-06T00:40:40.241Z,1006.1
2018-02-06T00:41:41.617Z,1006.1
2018-02-06T00:42:43.004Z,1006.0
2018-02-06T00:43:44.391Z,1006.0
2018-02-06T00:44:45.774Z,1005.9
2018-02-06T00:45:47.159Z,1005.9
2018-02-06T00:46:48.547Z,1005.8
2018-02-06T00:47:49.937Z,1005.8
2018-02-06T00:48:51.320Z,1005.8
2018-02-06T00:49:52.702Z,1005.8
2018-02-06T00:50:54.085Z,1005.8
2018-02-06T00:51:55.471Z,1005.8
2018-02-06T00:52:56.855Z,1005.8
2018-02-06T00:53:58.247Z,1005.9
2018-02-06T00:54:59.636Z,1005.8
2018-02-06T00:56:01.024Z,1005.8
2018-02-06T00:57:02.403Z,1005.8
2018-02-06T00:58:03.786Z,1005.8
2018-02-06T00:59:05.171Z,1005.8
2018-02-06T01:00:06.557Z,1005.8
2018-02-06T01:01:07.940Z,1005.8
2018-02-06T01:02:09.327Z,1005.8
2018-02-06T01:03:10.710Z,1005.8
2018-02-06T01:04:12.094Z,1005.7
2018-02-06T01:05:13.481Z,1005.7
2018-02-06T01:06:14.941Z,1005.7
2018-02-06T01:07:16.397Z,1005.6
2018-02-06T01:08:17.783Z,1005.6
2018-02-06T01:09:19.171Z,1005.5
2018-02-06T01:10:20.554Z,1005.6
2018-02-06T01:11:21.939Z,1005.5
2018-02-06T01:12:23.345Z,1005.5
2018-02-06T01:13:24.726Z,1005.5
2018-02-06T01:14:26.112Z,1005.5
2018-02-06T01:15:27.499Z,1005.5
2018-02-06T01:16:28.885Z,1005.5
2018-02-06T01:17:30.268Z,1005.5
2018-02-06T01:18:31.653Z,1005.5
2018-02-06T01:19:33.036Z,1005.5
2018-02-06T01:20:34.420Z,1005.5
2018-02-06T01:21:35.807Z,1005.5
2018-02-06T01:22:37.198Z,1005.5
2018-02-06T01:23:38.581Z,1005.5
2018-02-06T01:24:40.025Z,1005.5
2018-02-06T01:25:41.352Z,1005.4
2018-02-06T01:26:42.736Z,1005.4
2018-02-06T01:27:44.136Z,1005.3
2018-02-06T01:28:45.500Z,1005.3
2018-02-06T01:29:46.889Z,1005.3
2018-02-06T01:30:48.278Z,1005.3
2018-02-06T01:31:49.660Z,1005.3
2018-02-06T01:32:51.052Z,1005.3
2018-02-06T01:33:52.430Z,1005.3
2018-02-06T01:34:53.816Z,1005.3
2018-02-06T01:35:55.202Z,1005.3
2018-02-06T01:36:56.589Z,1005.3
2018-02-06T01:37:57.976Z,1005.3
2018-02-06T01:38:59.359Z,1005.3
2018-02-06T01:40:00.742Z,1005.3
2018-02-06T01:41:02.127Z,1005.3
2018-02-06T01:42:03.512Z,1005.2
2018-02-06T01:43:04.898Z,1005.2
2018-02-06T01:44:06.284Z,1005.2
2018-02-06T01:45:07.670Z,1005.2
2018-02-06T01:46:09.059Z,1005.2
2018-02-06T01:47:10.440Z,1005.1
2018-02-06T01:48:11.830Z,1005.2
2018-02-06T01:49:13.228Z,1005.1
2018-02-06T01:50:14.614Z,1005.1
2018-02-06T01:51:15.997Z,1005.1
2018-02-06T01:52:17.388Z,1005.1
2018-02-06T01:53:18.773Z,1005.1
2018-02-06T01:54:20.155Z,1005.1
2018-02-06T01:55:21.541Z,1005.1
2018-02-06T01:56:22.924Z,1005.1
2018-02-06T01:57:24.393Z,1005.0
2018-02-06T01:58:25.785Z,1005.1
2018-02-06T01:59:27.171Z,1005.0
2018-02-06T02:00:28.555Z,1005.0
2018-02-06T02:01:29.943Z,1005.0
2018-02-06T02:02:31.326Z,1004.9
2018-02-06T02:03:32.714Z,1004.9
2018-02-06T02:04:34.100Z,1004.9
2018-02-06T02:05:35.484Z,1004.9
2018-02-06T02:06:36.875Z,1004.8
2018-02-06T02:07:38.258Z,1004.8
2018-02-06T02:08:39.645Z,1004.8
2018-02-06T02:09:41.030Z,1004.9
2018-02-06T02:10:42.431Z,1004.8
2018-02-06T02:11:43.815Z,1004.8
2018-02-06T02:12:45.202Z,1004.8
2018-02-06T02:13:46.588Z,1004.8
2018-02-06T02:14:47.973Z,1004.8
2018-02-06T02:15:49.358Z,1004.7
2018-02-06T02:16:50.743Z,1004.7
2018-02-06T02:17:52.130Z,1004.7
2018-02-06T02:18:53.518Z,1004.7
2018-02-06T02:19:54.902Z,1004.7
2018-02-06T02:20:56.291Z,1004.6
2018-02-06T02:21:57.672Z,1004.6
2018-02-06T02:22:59.058Z,1004.6
2018-02-06T02:24:00.453Z,1004.6
2018-02-06T02:25:01.840Z,1004.5
2018-02-06T02:26:03.222Z,1004.5
2018-02-06T02:27:04.666Z,1004.5
2018-02-06T02:28:05.995Z,1004.5
2018-02-06T02:29:07.381Z,1004.5
2018-02-06T02:30:08.763Z,1004.5
2018-02-06T02:31:10.155Z,1004.5
2018-02-06T02:32:11.539Z,1004.4
2018-02-06T02:33:12.925Z,1004.3
2018-02-06T02:34:14.312Z,1004.4
2018-02-06T02:35:15.698Z,1004.3
2018-02-06T02:36:17.081Z,1004.4
2018-02-06T02:37:18.502Z,1004.3
2018-02-06T02:38:19.885Z,1004.3
2018-02-06T02:39:21.270Z,1004.3
2018-02-06T02:40:22.662Z,1004.3
2018-02-06T02:41:24.043Z,1004.3
2018-02-06T19:23:00.268Z,999.7
2018-02-06T19:24:01.648Z,999.7
2018-02-06T19:25:24.126Z,999.6
2018-02-06T19:26:25.505Z,999.7
2018-02-06T19:27:47.270Z,999.7
2018-02-06T19:28:48.754Z,999.8
2018-02-06T19:29:50.131Z,999.7
2018-02-06T19:30:51.516Z,999.7
2018-02-06T19:31:52.898Z,999.7
2018-02-06T19:32:54.276Z,999.7
2018-02-06T19:33:55.656Z,999.7
2018-02-06T19:34:57.043Z,999.7
2018-02-06T19:35:58.414Z,999.7
2018-02-06T19:36:59.917Z,999.7
2018-02-06T19:38:01.384Z,999.7
2018-02-06T19:39:02.767Z,999.6
2018-02-06T19:40:04.150Z,999.7
2018-02-06T19:41:05.527Z,999.7
2018-02-06T19:42:06.909Z,999.7
2018-02-06T19:43:08.287Z,999.7
2018-02-06T19:44:09.672Z,999.6
2018-02-06T19:45:11.050Z,999.6
2018-02-06T19:46:12.430Z,999.6
2018-02-06T19:47:13.820Z,999.6
2018-02-06T19:48:15.198Z,999.6
2018-02-06T19:49:16.581Z,999.6
2018-02-06T19:50:17.963Z,999.7
2018-02-06T19:51:19.413Z,999.7
2018-02-06T19:52:20.737Z,999.7
2018-02-06T19:53:22.119Z,999.6
2018-02-06T19:54:23.502Z,999.8
2018-02-06T19:55:24.893Z,999.7
2018-02-06T19:56:26.276Z,999.8
2018-02-06T19:57:27.655Z,999.8
2018-02-06T19:58:29.041Z,999.8
2018-02-06T19:59:30.425Z,999.8
2018-02-06T20:00:31.805Z,999.8
2018-02-06T20:01:33.194Z,999.8
2018-02-06T20:02:34.592Z,999.8
2018-02-06T20:03:35.972Z,999.8
2018-02-06T20:04:37.353Z,999.8
2018-02-06T20:05:38.733Z,999.8
2018-02-06T20:06:40.114Z,999.8
2018-02-06T20:07:41.497Z,999.9
2018-02-06T20:08:42.879Z,999.9
2018-02-06T20:09:44.263Z,999.8
2018-02-06T20:10:45.645Z,999.9
2018-02-06T20:11:47.026Z,999.9
2018-02-06T20:12:48.414Z,999.9
2018-02-06T20:13:49.829Z,999.8
2018-02-06T20:14:51.189Z,999.8
2018-02-06T20:15:52.572Z,999.8
2018-02-06T20:16:53.956Z,999.8
2018-02-06T20:17:55.340Z,999.8
2018-02-06T20:18:56.715Z,999.8
2018-02-06T20:19:58.097Z,999.8
2018-02-06T20:20:59.485Z,999.8
2018-02-06T20:22:00.868Z,999.8
2018-02-06T20:23:02.249Z,999.8
2018-02-06T20:24:03.645Z,999.8
2018-02-06T20:25:05.029Z,999.8
2018-02-06T20:26:06.415Z,999.8
2018-02-06T20:27:07.794Z,999.8
2018-02-06T20:28:09.220Z,999.8
2018-02-06T20:29:10.618Z,999.8
2018-02-06T20:30:12.003Z,999.8
2018-02-06T20:31:13.387Z,999.8
2018-02-06T20:32:14.771Z,999.8
2018-02-06T20:33:16.154Z,999.8
2018-02-06T20:34:17.533Z,999.8
2018-02-06T20:35:18.918Z,999.8
2018-02-06T20:36:20.303Z,999.7
2018-02-06T20:37:21.686Z,999.8
2018-02-06T20:38:23.250Z,999.7
2018-02-06T20:39:24.773Z,999.7
2018-02-06T20:40:26.145Z,999.7
2018-02-06T20:41:27.547Z,999.8
2018-02-06T20:42:28.916Z,999.7
2018-02-06T20:43:30.297Z,999.7
2018-02-06T20:44:31.708Z,999.8
2018-02-06T20:45:33.092Z,999.8
2018-02-06T20:46:34.474Z,999.8
2018-02-06T20:47:35.860Z,999.8
2018-02-06T20:48:37.245Z,999.8
2018-02-06T20:49:38.632Z,999.9
2018-02-06T20:50:40.023Z,999.9
2018-02-06T20:51:41.396Z,999.9
2018-02-06T20:52:42.780Z,999.9
2018-02-06T20:53:44.172Z,999.9
2018-02-06T20:54:45.574Z,999.9
2018-02-06T20:55:46.969Z,999.9
2018-02-06T20:56:48.381Z,999.8
2018-02-06T20:57:49.910Z,999.8
2018-02-06T20:58:51.296Z,999.8
2018-02-06T20:59:52.676Z,999.8
2018-02-06T21:00:54.060Z,999.8
2018-02-06T21:01:55.442Z,999.8
2018-02-06T21:02:56.823Z,999.8
2018-02-06T21:03:58.206Z,999.9
2018-02-06T21:04:59.590Z,999.8
2018-02-06T21:06:00.975Z,999.8
2018-02-06T21:07:02.349Z,999.8
2018-02-06T21:08:03.731Z,999.8
2018-02-06T21:09:05.113Z,999.9
2018-02-06T21:10:06.495Z,999.9
2018-02-06T21:11:07.875Z,999.8
2018-02-06T21:12:09.256Z,999.9
2018-02-06T21:13:10.642Z,999.9
2018-02-06T21:14:12.023Z,999.8
2018-02-06T21:15:13.405Z,999.8
2018-02-06T21:16:14.784Z,999.8
2018-02-06T21:17:16.163Z,999.8
2018-02-06T21:18:17.544Z,999.8
2018-02-06T21:19:19.025Z,999.8
2018-02-06T21:20:20.451Z,999.8
2018-02-06T21:21:21.835Z,999.8
2018-02-06T21:22:23.231Z,999.8
2018-02-06T21:23:24.609Z,999.8
2018-02-06T21:24:25.990Z,999.8
2018-02-06T21:25:27.375Z,999.9
2018-02-06T21:25:59.818Z,999.9
2018-02-06T21:27:01.192Z,999.9
2018-02-06T21:28:02.573Z,999.9
2018-02-06T21:29:04.229Z,999.9
2018-02-06T21:30:05.705Z,999.9
2018-02-06T21:31:07.083Z,999.9
2018-02-06T21:32:08.464Z,999.9
2018-02-06T21:33:09.851Z,999.9
2018-02-06T21:34:11.233Z,1000.0
2018-02-06T21:35:12.611Z,1000.0
2018-02-06T21:36:13.996Z,1000.0
2018-02-06T21:37:15.379Z,1000.0
2018-02-06T21:38:16.763Z,1000.0
2018-02-06T21:39:18.146Z,1000.1
2018-02-06T21:40:19.531Z,1000.1
2018-02-06T21:41:20.912Z,1000.0
2018-02-06T21:42:22.295Z,1000.0
2018-02-06T21:43:23.677Z,1000.1
2018-02-06T21:44:25.105Z,1000.0
2018-02-06T21:45:26.491Z,1000.0
2018-02-06T21:46:27.911Z,1000.1
2018-02-06T21:47:29.280Z,1000.1
2018-02-06T21:48:30.673Z,1000.1
2018-02-06T21:49:32.057Z,1000.1
2018-02-06T21:50:33.435Z,1000.2
2018-02-06T21:51:34.835Z,1000.1
2018-02-06T21:52:36.232Z,1000.1
2018-02-06T21:53:37.610Z,1000.2
2018-02-06T21:54:38.989Z,1000.1
2018-02-06T21:55:40.373Z,1000.2
2018-02-06T21:56:41.755Z,1000.2
2018-02-06T21:57:43.138Z,1000.2
2018-02-06T21:58:44.520Z,1000.1
2018-02-06T21:59:45.902Z,1000.2
2018-02-06T22:00:47.292Z,1000.2
2018-02-06T22:01:48.669Z,1000.2
2018-02-06T22:02:50.053Z,1000.2
2018-02-06T22:03:51.434Z,1000.2
2018-02-06T22:04:52.817Z,1000.2
2018-02-06T22:05:54.202Z,1000.2
2018-02-06T22:06:55.690Z,1000.2
2018-02-06T22:07:57.260Z,1000.2
2018-02-06T22:08:58.647Z,1000.2
2018-02-06T22:10:00.037Z,1000.2
2018-02-06T22:11:01.419Z,1000.3
2018-02-06T22:12:02.787Z,1000.2
2018-02-06T22:13:04.168Z,1000.3
2018-02-06T22:14:05.555Z,1000.3
2018-02-06T22:15:06.937Z,1000.3
2018-02-06T22:16:08.321Z,1000.2
2018-02-06T22:17:09.701Z,1000.2
2018-02-06T22:18:11.081Z,1000.2
2018-02-06T22:19:12.466Z,1000.3
2018-02-06T22:20:13.849Z,1000.2
2018-02-06T22:21:15.231Z,1000.2
2018-02-06T22:22:16.621Z,1000.2
2018-02-06T22:23:18.005Z,1000.2
2018-02-06T22:24:19.384Z,1000.2
2018-02-06T22:25:20.766Z,1000.2
2018-02-06T22:26:22.153Z,1000.2
2018-02-06T22:27:23.535Z,1000.3
2018-02-06T22:28:24.920Z,1000.2
2018-02-06T22:29:26.302Z,1000.2
2018-02-06T22:30:27.687Z,1000.1
2018-02-06T22:31:29.069Z,1000.1
2018-02-06T22:32:30.449Z,1000.1
2018-02-06T22:33:31.828Z,1000.1
2018-02-06T22:34:33.208Z,1000.1
2018-02-06T22:35:34.595Z,1000.2
2018-02-06T22:36:35.977Z,1000.2
2018-02-06T22:37:37.362Z,1000.2
2018-02-06T22:38:38.758Z,1000.2
2018-02-06T22:39:40.138Z,1000.2
2018-02-06T22:40:41.520Z,1000.2
2018-02-06T22:41:42.904Z,1000.3
2018-02-06T22:42:44.289Z,1000.2
2018-02-06T22:43:45.674Z,1000.3
2018-02-06T22:44:47.054Z,1000.3
2018-02-06T22:45:48.441Z,1000.3
2018-02-06T22:46:49.819Z,1000.3
2018-02-06T22:47:51.201Z,1000.3
2018-02-06T22:48:52.584Z,1000.3
2018-02-06T22:49:53.967Z,1000.4
2018-02-06T22:50:55.349Z,1000.4
2018-02-06T22:51:56.737Z,1000.3
2018-02-06T22:52:58.126Z,1000.3
2018-02-06T22:53:59.504Z,1000.3
2018-02-06T22:55:00.890Z,1000.4
2018-02-06T22:56:02.274Z,1000.3
2018-02-06T22:57:03.657Z,1000.3
2018-02-06T22:58:05.150Z,1000.3
2018-02-06T22:59:06.567Z,1000.3
2018-02-06T23:00:07.957Z,1000.3
2018-02-06T23:01:09.338Z,1000.3
2018-02-06T23:02:10.718Z,1000.3
2018-02-06T23:03:12.100Z,1000.3
2018-02-06T23:04:13.481Z,1000.3
2018-02-06T23:05:14.864Z,1000.3
2018-02-06T23:06:16.254Z,1000.3
2018-02-06T23:07:17.633Z,1000.2
2018-02-06T23:08:19.015Z,1000.3
2018-02-06T23:09:20.397Z,1000.2
2018-02-06T23:10:21.791Z,1000.2
2018-02-06T23:11:23.185Z,1000.1
2018-02-06T23:12:24.569Z,1000.0
2018-02-06T23:13:25.951Z,1000.1
2018-02-06T23:14:27.329Z,1000.1
2018-02-06T23:15:28.710Z,1000.1
2018-02-06T23:16:30.091Z,1000.2
2018-02-06T23:17:31.470Z,1000.1
2018-02-06T23:18:32.853Z,1000.1
2018-02-06T23:19:34.240Z,1000.2
2018-02-06T23:20:35.625Z,1000.2
2018-02-06T23:21:37.005Z,1000.2
2018-02-06T23:22:38.391Z,1000.2
2018-02-06T23:23:39.768Z,1000.3
2018-02-06T23:24:41.151Z,1000.3
2018-02-06T23:25:42.534Z,1000.3
2018-02-06T23:26:43.911Z,1000.3
2018-02-06T23:27:45.293Z,1000.3
2018-02-06T23:28:46.672Z,1000.4
2018-02-06T23:29:48.054Z,1000.4
2018-02-06T23:30:49.436Z,1000.4
2018-02-06T23:31:50.816Z,1000.4
2018-02-06T23:32:52.198Z,1000.3
2018-02-06T23:33:53.580Z,1000.3
2018-02-06T23:34:54.963Z,1000.4
2018-02-06T23:35:56.346Z,1000.4
2018-02-06T23:36:57.778Z,1000.4
2018-02-06T23:37:59.097Z,1000.3
2018-02-06T23:39:00.482Z,1000.3
2018-02-06T23:40:01.863Z,1000.3
2018-02-06T23:41:03.242Z,1000.3
2018-02-06T23:42:04.628Z,1000.3
2018-02-06T23:43:06.006Z,1000.4
2018-02-06T23:44:07.388Z,1000.3
2018-02-06T23:45:08.771Z,1000.3
2018-02-06T23:46:10.154Z,1000.3
2018-02-06T23:47:11.536Z,1000.3
2018-02-06T23:48:12.919Z,1000.3
2018-02-06T23:49:14.333Z,1000.3
2018-02-06T23:50:15.821Z,1000.3
2018-02-06T23:51:17.206Z,1000.3
2018-02-06T23:52:18.590Z,1000.3
2018-02-06T23:53:19.970Z,1000.3
2018-02-06T23:54:21.353Z,1000.3
2018-02-06T23:55:22.736Z,1000.3
2018-02-06T23:56:24.121Z,1000.3
2018-02-06T23:57:25.502Z,1000.3
2018-02-06T23:58:26.882Z,1000.3
2018-02-06T23:59:28.287Z,1000.3
